createdAt,value
2018-04-08T00:01:35.178Z,10.67
2018-04-08T00:04:04.175Z,15.37
2018-04-08T00:06:32.417Z,12.90
2018-04-08T00:09:00.674Z,11.27
2018-04-08T00:11:28.890Z,9.77
2018-04-08T00:13:57.138Z,11.27
2018-04-08T00:16:26.894Z,11.53
2018-04-08T00:18:56.040Z,11.20
2018-04-08T00:21:24.271Z,13.50
2018-04-08T00:23:52.502Z,10.37
2018-04-08T00:26:20.739Z,12.53
2018-04-08T00:28:48.957Z,7.17
2018-04-08T00:31:17.229Z,11.83
2018-04-08T00:33:45.436Z,10.33
2018-04-08T00:36:13.654Z,8.00
2018-04-08T00:38:41.903Z,12.20
2018-04-08T00:41:10.129Z,10.57
2018-04-08T00:43:38.362Z,8.63
2018-04-08T00:46:06.626Z,8.27
2018-04-08T00:48:34.869Z,7.60
2018-04-08T00:51:03.869Z,10.60
2018-04-08T00:53:32.857Z,8.23
2018-04-08T00:56:02.103Z,7.90
2018-04-08T00:58:30.858Z,10.10
2018-04-08T01:00:58.936Z,8.80
2018-04-08T01:03:26.944Z,9.40
2018-04-08T01:05:54.961Z,10.23
2018-04-08T01:08:23.065Z,10.47
2018-04-08T01:10:51.806Z,8.50
2018-04-08T01:13:19.800Z,8.20
2018-04-08T01:15:47.791Z,9.80
2018-04-08T01:18:15.790Z,8.93
2018-04-08T01:20:44.006Z,8.83
2018-04-08T01:23:13.025Z,9.00
2018-04-08T01:25:41.246Z,10.27
2018-04-08T01:28:09.484Z,8.37
2018-04-08T01:30:37.742Z,9.37
2018-04-08T01:33:06.726Z,6.77
2018-04-08T01:35:35.706Z,8.63
2018-04-08T01:38:03.958Z,9.23
2018-04-08T01:40:32.178Z,8.30
2018-04-08T01:43:01.227Z,9.23
2018-04-08T01:45:29.428Z,8.50
2018-04-08T01:47:57.682Z,7.93
2018-04-08T01:50:25.913Z,7.60
2018-04-08T01:52:54.158Z,8.23
2018-04-08T01:55:23.885Z,8.37
2018-04-08T01:57:52.886Z,7.10
2018-04-08T02:00:21.098Z,9.50
2018-04-08T02:02:49.344Z,8.13
2018-04-08T02:05:17.553Z,8.87
2018-04-08T02:07:45.800Z,6.13
2018-04-08T02:10:14.050Z,8.10
2018-04-08T02:12:42.354Z,8.17
2018-04-08T02:15:10.583Z,8.90
2018-04-08T02:17:40.336Z,12.80
2018-04-08T02:20:08.573Z,8.77
2018-04-08T02:22:36.788Z,6.40
2018-04-08T02:25:05.046Z,8.43
2018-04-08T02:27:34.030Z,9.00
2018-04-08T02:30:02.251Z,8.93
2018-04-08T02:32:30.510Z,7.93
2018-04-08T02:34:58.782Z,8.10
2018-04-08T02:37:27.043Z,8.13
2018-04-08T02:39:56.030Z,9.87
2018-04-08T02:42:25.069Z,9.73
2018-04-08T02:44:53.294Z,7.47
2018-04-08T02:47:21.534Z,6.30
2018-04-08T02:49:49.750Z,7.83
2018-04-08T02:52:17.987Z,7.37
2018-04-08T02:54:46.230Z,7.50
2018-04-08T02:57:14.469Z,8.70
2018-04-08T02:59:42.690Z,7.40
2018-04-08T03:02:10.944Z,8.40
2018-04-08T03:04:40.050Z,7.10
2018-04-08T03:07:08.331Z,6.33
2018-04-08T03:09:36.612Z,8.30
2018-04-08T03:12:04.845Z,9.90
2018-04-08T03:14:33.869Z,9.77
2018-04-08T03:17:02.135Z,9.87
2018-04-08T03:19:30.342Z,14.37
2018-04-08T03:21:58.598Z,9.47
2018-04-08T03:24:26.828Z,9.13
2018-04-08T03:26:55.150Z,8.93
2018-04-08T03:29:23.380Z,8.97
2018-04-08T03:31:51.618Z,8.60
2018-04-08T03:34:19.834Z,9.03
2018-04-08T03:36:48.089Z,9.67
2018-04-08T03:39:16.351Z,10.07
2018-04-08T03:41:44.565Z,8.83
2018-04-08T03:44:12.785Z,7.87
2018-04-08T03:46:41.065Z,6.90
2018-04-08T03:49:09.318Z,8.73
2018-04-08T03:51:38.304Z,7.97
2018-04-08T03:54:06.552Z,9.80
2018-04-08T03:56:34.766Z,7.53
2018-04-08T03:59:03.086Z,7.77
2018-04-08T04:01:31.314Z,10.53
2018-04-08T04:04:00.299Z,8.57
2018-04-08T04:06:29.313Z,7.97
2018-04-08T04:08:58.305Z,8.23
2018-04-08T04:11:27.313Z,8.97
2018-04-08T04:13:55.534Z,9.63
2018-04-08T04:16:23.758Z,8.27
2018-04-08T04:19:03.856Z,9.83
2018-04-08T04:24:46.814Z,10.60
2018-04-08T04:27:15.064Z,8.70
2018-04-08T04:29:43.277Z,10.10
2018-04-08T04:32:11.502Z,10.60
2018-04-08T04:34:39.742Z,10.20
2018-04-08T04:37:08.738Z,12.47
2018-04-08T04:39:37.746Z,12.07
2018-04-08T04:42:09.685Z,9.47
2018-04-08T04:44:38.698Z,10.37
2018-04-08T04:47:06.946Z,9.20
2018-04-08T04:49:35.183Z,10.80
2018-04-08T04:52:03.409Z,9.90
2018-04-08T04:54:32.526Z,11.77
2018-04-08T04:57:00.772Z,10.03
2018-04-08T04:59:29.085Z,10.83
2018-04-08T05:01:57.361Z,10.43
2018-04-08T05:04:25.621Z,9.30
2018-04-08T05:06:53.849Z,10.47
2018-04-08T05:09:22.094Z,10.47
2018-04-08T05:11:50.323Z,9.17
2018-04-08T05:14:18.641Z,8.97
2018-04-08T05:16:46.919Z,10.07
2018-04-08T05:19:15.166Z,9.57
2018-04-08T05:21:44.149Z,9.63
2018-04-08T05:24:12.457Z,10.70
2018-04-08T05:26:40.737Z,8.77
2018-04-08T05:29:09.738Z,10.10
2018-04-08T05:31:37.982Z,10.80
2018-04-08T05:34:07.001Z,8.83
2018-04-08T05:36:35.242Z,8.33
2018-04-08T05:39:03.477Z,12.60
2018-04-08T05:41:31.753Z,11.93
2018-04-08T05:43:59.998Z,8.83
2018-04-08T05:46:29.004Z,8.17
2018-04-08T05:48:57.250Z,8.63
2018-04-08T05:51:25.506Z,9.77
2018-04-08T05:53:53.772Z,8.33
2018-04-08T05:56:21.991Z,8.90
2018-04-08T05:58:51.070Z,9.33
2018-04-08T06:01:19.270Z,9.03
2018-04-08T06:03:48.333Z,12.03
2018-04-08T06:06:16.652Z,8.73
2018-04-08T06:08:44.870Z,10.97
2018-04-08T06:11:13.134Z,10.87
2018-04-08T06:13:41.380Z,11.13
2018-04-08T06:16:09.655Z,9.60
2018-04-08T06:18:37.893Z,9.07
2018-04-08T06:21:06.216Z,8.67
2018-04-08T06:23:34.453Z,9.83
2018-04-08T06:26:03.502Z,8.27
2018-04-08T06:28:31.925Z,11.70
2018-04-08T06:31:00.150Z,10.50
2018-04-08T06:33:28.404Z,9.63
2018-04-08T06:35:56.625Z,10.43
2018-04-08T06:38:24.870Z,12.03
2018-04-08T06:40:53.096Z,10.57
2018-04-08T06:43:21.318Z,9.37
2018-04-08T06:45:49.565Z,10.30
2018-04-08T06:48:18.578Z,11.20
2018-04-08T06:50:46.832Z,9.00
2018-04-08T06:53:15.105Z,8.07
2018-04-08T06:55:43.364Z,8.80
2018-04-08T06:58:11.601Z,10.23
2018-04-08T07:00:39.825Z,8.50
2018-04-08T07:03:09.581Z,9.17
2018-04-08T07:05:37.852Z,9.37
2018-04-08T07:08:06.124Z,10.03
2018-04-08T07:10:34.374Z,9.40
2018-04-08T07:13:02.625Z,9.07
2018-04-08T07:15:30.836Z,9.67
2018-04-08T07:17:59.828Z,8.83
2018-04-08T07:20:28.112Z,8.30
2018-04-08T07:22:56.302Z,10.23
2018-04-08T07:25:24.554Z,10.17
2018-04-08T07:27:53.581Z,8.67
2018-04-08T07:30:21.826Z,10.63
2018-04-08T07:32:50.823Z,8.00
2018-04-08T07:35:19.837Z,10.43
2018-04-08T07:37:48.092Z,22.53
2018-04-08T07:40:16.398Z,20.63
2018-04-08T07:42:44.666Z,9.90
2018-04-08T07:45:12.888Z,12.47
2018-04-08T07:47:41.113Z,9.13
2018-04-08T07:50:09.403Z,11.43
2018-04-08T07:52:37.622Z,9.37
2018-04-08T07:55:05.877Z,10.47
2018-04-08T07:57:34.118Z,8.87
2018-04-08T08:00:02.363Z,10.57
2018-04-08T08:02:32.104Z,12.80
2018-04-08T08:05:01.319Z,11.47
2018-04-08T08:07:29.586Z,11.33
2018-04-08T08:09:57.802Z,9.23
2018-04-08T08:12:26.135Z,9.70
2018-04-08T08:14:54.419Z,9.60
2018-04-08T08:17:22.661Z,13.80
2018-04-08T08:19:51.665Z,11.70
2018-04-08T08:22:20.649Z,8.77
2018-04-08T08:24:49.667Z,16.07
2018-04-08T08:27:17.920Z,11.33
2018-04-08T08:29:46.151Z,10.40
2018-04-08T08:32:14.401Z,9.07
2018-04-08T08:34:42.650Z,11.00
2018-04-08T08:37:11.665Z,11.23
2018-04-08T08:39:39.886Z,13.37
2018-04-08T08:42:08.134Z,9.17
2018-04-08T08:44:36.382Z,53.37
2018-04-08T08:47:05.381Z,11.47
2018-04-08T08:49:34.422Z,10.77
2018-04-08T08:52:02.639Z,11.67
2018-04-08T08:54:31.650Z,13.57
2018-04-08T08:56:59.900Z,11.03
2018-04-08T08:59:28.131Z,10.80
2018-04-08T09:01:56.379Z,10.80
2018-04-08T09:04:24.594Z,11.23
2018-04-08T09:06:52.872Z,21.93
2018-04-08T09:09:21.085Z,12.43
2018-04-08T09:11:50.069Z,12.40
2018-04-08T09:14:18.378Z,10.63
2018-04-08T09:16:46.602Z,7.93
2018-04-08T09:19:16.585Z,7.73
2018-04-08T09:21:45.389Z,10.23
2018-04-08T09:24:16.424Z,9.30
2018-04-08T09:26:44.666Z,9.90
2018-04-08T09:29:12.854Z,10.27
2018-04-08T09:31:41.093Z,9.67
2018-04-08T09:34:09.322Z,12.97
2018-04-08T09:36:37.586Z,11.73
2018-04-08T09:39:05.799Z,9.10
2018-04-08T09:41:34.072Z,8.87
2018-04-08T09:44:02.361Z,7.03
2018-04-08T09:46:30.598Z,8.20
2018-04-08T09:48:58.850Z,8.37
2018-04-08T09:51:27.847Z,9.50
2018-04-08T09:53:56.772Z,8.27
2018-04-08T09:56:25.025Z,8.90
2018-04-08T09:58:53.269Z,6.80
2018-04-08T10:04:27.223Z,8.30
2018-04-08T10:06:56.230Z,8.07
2018-04-08T10:09:24.510Z,7.57
2018-04-08T10:11:52.762Z,7.90
2018-04-08T10:14:21.877Z,8.57
2018-04-08T10:16:50.105Z,8.87
2018-04-08T10:19:18.337Z,7.30
2018-04-08T10:21:46.618Z,7.80
2018-04-08T10:24:14.859Z,11.03
2018-04-08T10:26:43.861Z,9.50
2018-04-08T10:29:12.885Z,7.33
2018-04-08T10:31:41.120Z,13.90
2018-04-08T10:34:10.181Z,18.97
2018-04-08T10:36:38.481Z,41.13
2018-04-08T10:39:06.699Z,12.67
2018-04-08T10:41:34.933Z,8.53
2018-04-08T10:44:03.214Z,17.57
2018-04-08T10:46:31.449Z,8.17
2018-04-08T10:48:59.701Z,6.97
2018-04-08T10:51:27.921Z,8.53
2018-04-08T10:53:56.292Z,7.83
2018-04-08T10:56:24.536Z,16.40
2018-04-08T10:58:52.765Z,11.90
2018-04-08T11:01:21.007Z,8.03
2018-04-08T11:03:49.251Z,8.37
2018-04-08T11:06:17.517Z,6.93
2018-04-08T11:08:46.507Z,6.80
2018-04-08T11:11:15.493Z,9.00
2018-04-08T11:13:44.485Z,8.53
2018-04-08T11:16:13.571Z,6.97
2018-04-08T11:18:41.786Z,11.00
2018-04-08T11:21:10.006Z,7.23
2018-04-08T11:23:38.266Z,7.10
2018-04-08T11:26:06.485Z,8.03
2018-04-08T11:28:34.736Z,6.83
2018-04-08T11:31:02.959Z,7.17
2018-04-08T11:33:31.246Z,9.13
2018-04-08T11:35:59.478Z,20.57
2018-04-08T11:38:27.722Z,7.57
2018-04-08T11:40:55.968Z,9.10
2018-04-08T11:43:24.183Z,8.97
2018-04-08T11:45:52.417Z,7.87
2018-04-08T11:48:20.660Z,8.27
2018-04-08T11:50:48.928Z,6.73
2018-04-08T11:53:17.174Z,7.80
2018-04-08T11:55:45.396Z,7.33
2018-04-08T11:58:14.442Z,8.60
2018-04-08T12:00:42.721Z,12.67
2018-04-08T12:03:11.677Z,10.83
2018-04-08T12:05:39.913Z,10.53
2018-04-08T12:08:08.142Z,10.67
2018-04-08T12:10:36.401Z,8.97
2018-04-08T12:13:05.394Z,9.90
2018-04-08T12:15:34.394Z,7.10
2018-04-08T12:18:02.657Z,8.80
2018-04-08T12:20:31.650Z,9.07
2018-04-08T12:23:00.658Z,10.33
2018-04-08T12:25:28.886Z,6.73
2018-04-08T12:27:57.103Z,6.47
2018-04-08T12:30:26.134Z,27.80
2018-04-08T12:32:54.368Z,8.67
2018-04-08T12:35:23.359Z,56.10
2018-04-08T12:37:52.429Z,11.87
2018-04-08T12:40:20.681Z,7.60
2018-04-08T12:42:48.882Z,7.60
2018-04-08T12:45:17.115Z,7.23
2018-04-08T12:50:19.985Z,6.27
2018-04-08T12:52:49.010Z,7.00
2018-04-08T12:55:17.228Z,13.03
2018-04-08T12:57:45.467Z,15.27
2018-04-08T13:00:13.701Z,9.80
2018-04-08T13:02:42.681Z,7.47
2018-04-08T13:05:10.925Z,8.07
2018-04-08T13:07:39.161Z,7.90
2018-04-08T13:10:07.394Z,9.67
2018-04-08T13:12:35.629Z,8.77
2018-04-08T13:15:03.859Z,8.57
2018-04-08T13:17:32.087Z,7.87
2018-04-08T13:20:00.316Z,9.70
2018-04-08T13:22:28.554Z,9.33
2018-04-08T13:24:56.801Z,8.40
2018-04-08T13:27:25.023Z,8.47
2018-04-08T13:29:53.256Z,7.47
2018-04-08T13:32:21.539Z,8.70
2018-04-08T13:34:49.769Z,6.77
2018-04-08T13:37:17.982Z,7.30
2018-04-08T13:39:46.242Z,10.93
2018-04-08T13:42:15.222Z,13.20
2018-04-08T13:44:44.225Z,11.00
2018-04-08T13:47:13.319Z,9.70
2018-04-08T13:49:41.529Z,11.60
2018-04-08T13:52:09.751Z,7.27
2018-04-08T13:54:38.058Z,7.03
2018-04-08T13:57:07.034Z,10.37
2018-04-08T13:59:36.081Z,6.87
2018-04-08T14:02:04.321Z,11.13
2018-04-08T14:04:32.554Z,12.00
2018-04-08T14:07:00.801Z,8.27
2018-04-08T14:09:29.054Z,8.33
2018-04-08T14:11:57.297Z,10.27
2018-04-08T14:14:25.574Z,6.63
2018-04-08T14:16:53.857Z,10.20
2018-04-08T14:19:22.075Z,6.53
2018-04-08T14:21:50.338Z,7.57
2018-04-08T14:24:19.317Z,9.50
2018-04-08T14:26:48.303Z,8.83
2018-04-08T14:29:17.322Z,11.57
2018-04-08T14:31:45.573Z,12.67
2018-04-08T14:34:14.585Z,7.43
2018-04-08T14:36:42.816Z,12.50
2018-04-08T14:39:11.050Z,8.90
2018-04-08T14:41:39.274Z,7.43
2018-04-08T14:44:07.518Z,10.20
2018-04-08T14:46:35.789Z,9.83
2018-04-08T14:49:04.028Z,8.17
2018-04-08T14:51:33.018Z,11.43
2018-04-08T14:54:02.040Z,6.53
2018-04-08T14:56:30.309Z,11.20
2018-04-08T14:58:58.545Z,10.60
2018-04-08T15:01:26.768Z,9.57
2018-04-08T15:03:54.987Z,16.37
2018-04-08T15:06:23.231Z,7.67
2018-04-08T15:08:51.439Z,8.93
2018-04-08T15:11:21.289Z,19.57
2018-04-08T15:13:49.512Z,12.60
2018-04-08T15:16:17.739Z,9.27
2018-04-08T15:18:46.750Z,7.60
2018-04-08T15:21:14.985Z,10.97
2018-04-08T15:23:43.228Z,8.87
2018-04-08T15:26:11.480Z,12.43
2018-04-08T15:28:39.704Z,11.97
2018-04-08T15:31:07.956Z,10.73
2018-04-08T15:33:36.203Z,11.17
2018-04-08T15:36:04.427Z,11.73
2018-04-08T15:38:32.661Z,10.83
2018-04-08T15:41:00.898Z,11.90
2018-04-08T15:43:29.915Z,12.20
2018-04-08T15:45:58.170Z,16.00
2018-04-08T15:48:26.393Z,13.40
2018-04-08T15:50:54.684Z,10.20
2018-04-08T15:53:22.913Z,14.23
2018-04-08T15:55:51.930Z,12.27
2018-04-08T15:58:20.196Z,12.73
2018-04-08T16:00:48.449Z,11.67
2018-04-08T16:03:17.437Z,10.17
2018-04-08T16:05:46.497Z,25.20
2018-04-08T16:08:14.754Z,31.10
2018-04-08T16:10:43.005Z,17.13
2018-04-08T16:13:11.285Z,14.73
2018-04-08T16:15:39.535Z,18.30
2018-04-08T16:18:07.788Z,16.87
2018-04-08T16:20:36.040Z,12.10
2018-04-08T16:23:04.287Z,13.93
2018-04-08T16:25:32.550Z,14.47
2018-04-08T16:28:00.754Z,10.50
2018-04-08T16:30:29.002Z,21.17
2018-04-08T16:32:57.998Z,14.43
2018-04-08T16:35:27.045Z,11.03
2018-04-08T16:37:56.077Z,9.27
2018-04-08T16:40:24.390Z,10.40
2018-04-08T16:42:52.666Z,17.03
2018-04-08T16:45:20.923Z,13.30
2018-04-08T16:47:49.909Z,12.20
2018-04-08T16:50:18.916Z,23.50
2018-04-08T16:52:47.148Z,15.90
2018-04-08T16:55:15.402Z,11.50
2018-04-08T16:57:43.646Z,12.87
2018-04-08T17:00:11.906Z,11.70
2018-04-08T17:02:40.934Z,10.63
2018-04-08T17:05:09.189Z,14.10
2018-04-08T17:07:37.442Z,10.30
2018-04-08T17:10:05.705Z,13.43
2018-04-08T17:12:33.924Z,12.73
2018-04-08T17:15:02.155Z,14.67
2018-04-08T17:17:30.410Z,15.73
2018-04-08T17:19:58.665Z,13.67
2018-04-08T17:22:27.662Z,16.73
2018-04-08T17:24:55.889Z,15.80
2018-04-08T17:27:24.145Z,14.63
2018-04-08T17:29:52.395Z,15.83
2018-04-08T17:32:20.646Z,16.87
2018-04-08T17:34:48.892Z,12.83
2018-04-08T17:37:17.134Z,18.20
2018-04-08T17:39:45.374Z,19.83
2018-04-08T17:42:13.604Z,18.43
2018-04-08T17:44:41.845Z,20.73
2018-04-08T17:47:10.089Z,21.03
2018-04-08T17:49:39.081Z,22.27
2018-04-08T17:52:08.111Z,24.03
2018-04-08T17:54:36.378Z,21.67
2018-04-08T17:57:04.624Z,24.53
2018-04-08T17:59:33.635Z,20.80
2018-04-08T18:02:01.937Z,26.50
2018-04-08T18:04:30.166Z,24.17
2018-04-08T18:06:59.187Z,29.27
2018-04-08T18:09:27.413Z,32.27
2018-04-08T18:11:55.653Z,29.20
2018-04-08T18:14:23.911Z,25.73
2018-04-08T18:16:52.134Z,23.03
2018-04-08T18:19:20.386Z,20.67
2018-04-08T18:21:48.620Z,23.07
2018-04-08T18:24:17.631Z,20.30
2018-04-08T18:26:45.910Z,21.07
2018-04-08T18:29:14.151Z,31.23
2018-04-08T18:31:42.374Z,27.40
2018-04-08T18:34:10.633Z,24.33
2018-04-08T18:36:38.862Z,35.57
2018-04-08T18:39:07.161Z,33.47
2018-04-08T18:41:35.373Z,27.47
2018-04-08T18:44:03.617Z,27.17
2018-04-08T18:46:31.865Z,24.43
2018-04-08T18:49:00.122Z,16.93
2018-04-08T18:51:28.375Z,26.47
2018-04-08T18:53:57.377Z,18.73
2018-04-08T18:56:25.641Z,22.20
2018-04-08T18:58:53.888Z,17.70
2018-04-08T19:01:22.179Z,20.37
2018-04-08T19:03:50.406Z,20.03
2018-04-08T19:06:18.645Z,22.53
2018-04-08T19:08:46.935Z,23.70
2018-04-08T19:11:15.145Z,23.63
2018-04-08T19:13:43.389Z,21.30
2018-04-08T19:16:11.632Z,20.83
2018-04-08T19:18:40.690Z,23.47
2018-04-08T19:21:08.929Z,19.70
2018-04-08T19:23:37.170Z,27.57
2018-04-08T19:26:06.185Z,32.40
2018-04-08T19:28:35.171Z,26.83
2018-04-08T19:31:04.247Z,23.97
2018-04-08T19:33:32.482Z,20.90
2018-04-08T19:36:00.729Z,22.53
2018-04-08T19:38:28.976Z,24.00
2018-04-08T19:40:57.266Z,21.47
2018-04-08T19:43:26.290Z,18.63
2018-04-08T19:45:54.507Z,22.93
2018-04-08T19:48:22.754Z,24.17
2018-04-08T19:50:51.046Z,26.30
2018-04-08T19:53:20.122Z,26.67
2018-04-08T19:55:48.345Z,25.03
2018-04-08T19:58:16.602Z,28.00
2018-04-08T20:00:44.851Z,22.30
2018-04-08T20:03:13.093Z,28.00
2018-04-08T20:05:42.118Z,18.30
2018-04-08T20:08:10.350Z,19.93
2018-04-08T20:10:39.401Z,20.17
2018-04-08T20:13:07.774Z,24.30
2018-04-08T20:15:36.016Z,19.37
2018-04-08T20:18:05.072Z,26.70
2018-04-08T20:20:33.300Z,21.70
2018-04-08T20:23:01.525Z,20.77
2018-04-08T20:25:29.752Z,26.83
2018-04-08T20:27:58.118Z,22.43
2018-04-08T20:30:27.139Z,30.13
2018-04-08T20:32:55.395Z,27.60
2018-04-08T20:35:24.402Z,22.97
2018-04-08T20:37:52.655Z,24.20
2018-04-08T20:40:20.916Z,25.60
2018-04-08T20:42:49.189Z,23.03
2018-04-08T20:45:17.494Z,19.63
2018-04-08T20:47:46.490Z,22.10
2018-04-08T20:50:14.779Z,26.57
2018-04-08T20:52:42.991Z,20.53
2018-04-08T20:55:11.242Z,23.30
2018-04-08T20:57:39.548Z,22.70
2018-04-08T21:00:07.792Z,22.43
2018-04-08T21:02:36.034Z,22.17
2018-04-08T21:05:05.219Z,22.43
2018-04-08T21:07:34.243Z,24.27
2018-04-08T21:10:02.483Z,26.40
2018-04-08T21:12:30.749Z,24.90
2018-04-08T21:14:58.998Z,24.50
2018-04-08T21:17:27.250Z,20.27
2018-04-08T21:19:55.486Z,19.67
2018-04-08T21:22:23.734Z,20.47
2018-04-08T21:24:51.974Z,23.73
2018-04-08T21:27:20.286Z,24.00
2018-04-08T21:29:48.559Z,19.00
2018-04-08T21:32:16.793Z,32.03
2018-04-08T21:34:45.789Z,27.70
2018-04-08T21:37:14.071Z,26.07
2018-04-08T21:39:43.069Z,26.67
2018-04-08T21:42:11.421Z,29.87
2018-04-08T21:44:39.642Z,27.80
2018-04-08T21:47:07.914Z,28.70
2018-04-08T21:49:36.180Z,31.70
2018-04-08T21:52:04.455Z,27.63
2018-04-08T21:54:32.715Z,22.70
2018-04-08T21:57:01.714Z,21.30
2018-04-08T21:59:29.945Z,20.07
2018-04-08T22:01:58.199Z,24.20
2018-04-08T22:04:26.516Z,25.23
2018-04-08T22:06:54.772Z,29.57
2018-04-08T22:09:23.021Z,26.97
2018-04-08T22:11:51.282Z,27.57
2018-04-08T22:14:19.610Z,24.40
2018-04-08T22:16:47.867Z,30.83
2018-04-08T22:19:16.888Z,23.43
2018-04-08T22:21:45.122Z,25.23
2018-04-08T22:24:13.388Z,26.07
2018-04-08T22:26:41.630Z,26.73
2018-04-08T22:29:10.626Z,24.57
2018-04-08T22:31:39.733Z,26.00
2018-04-08T22:34:08.729Z,26.40
2018-04-08T22:36:37.755Z,24.17
2018-04-08T22:39:06.034Z,26.73
2018-04-08T22:41:34.316Z,29.47
2018-04-08T22:44:02.560Z,30.67
2018-04-08T22:46:30.813Z,27.47
2018-04-08T22:48:59.891Z,27.27
2018-04-08T22:51:28.126Z,27.67
2018-04-08T22:53:56.383Z,31.10
2018-04-08T22:56:24.619Z,27.50
2018-04-08T22:58:52.907Z,30.37
2018-04-08T23:01:21.141Z,28.30
2018-04-08T23:03:49.385Z,26.93
2018-04-08T23:06:17.635Z,26.20
2018-04-08T23:08:45.866Z,26.07
2018-04-08T23:11:14.094Z,31.07
2018-04-08T23:13:43.148Z,26.80
2018-04-08T23:16:11.377Z,26.00
2018-04-08T23:18:40.385Z,27.17
2018-04-08T23:21:08.639Z,26.03
2018-04-08T23:23:37.643Z,23.23
2018-04-08T23:26:06.663Z,27.97
2018-04-08T23:28:34.905Z,27.07
2018-04-08T23:31:03.906Z,24.40
2018-04-08T23:33:32.926Z,26.20
2018-04-08T23:36:01.157Z,28.13
2018-04-08T23:38:29.471Z,24.53
2018-04-08T23:40:58.441Z,22.80
2018-04-08T23:43:26.687Z,24.30
2018-04-08T23:45:54.963Z,23.83
2018-04-08T23:48:23.204Z,22.80
2018-04-08T23:50:51.466Z,29.13
2018-04-08T23:53:19.723Z,24.87
2018-04-08T23:55:48.751Z,26.87
2018-04-08T23:58:17.008Z,22.93
